createdAt,value
2018-04-28T00:01:35.671Z,0.00
2018-04-28T00:02:35.661Z,0.00
2018-04-28T00:03:35.649Z,0.00
2018-04-28T00:04:50.151Z,0.00
2018-04-28T00:05:42.151Z,0.00
2018-04-28T00:06:57.159Z,0.00
2018-04-28T00:07:36.151Z,0.00
2018-04-28T00:08:59.084Z,0.00
2018-04-28T00:09:57.651Z,0.00
2018-04-28T00:10:36.651Z,0.00
2018-04-28T00:11:36.649Z,0.00
2018-04-28T00:12:37.152Z,0.00
2018-04-28T00:13:58.156Z,0.00
2018-04-28T00:14:37.150Z,0.00
2018-04-28T00:15:37.151Z,0.00
2018-04-28T00:16:39.102Z,0.00
2018-04-28T00:17:58.651Z,0.00
2018-04-28T00:18:37.650Z,0.00
2018-04-28T00:19:36.994Z,0.00
2018-04-28T00:20:39.083Z,0.00
2018-04-28T00:21:59.148Z,0.00
2018-04-28T00:24:09.541Z,0.00
2018-04-28T00:25:12.522Z,0.00
2018-04-28T00:26:30.546Z,0.00
2018-04-28T00:27:37.046Z,0.00
2018-04-28T00:28:10.043Z,0.00
2018-04-28T00:29:30.369Z,0.00
2018-04-28T00:30:10.046Z,0.00
2018-04-28T00:31:12.978Z,0.00
2018-04-28T00:32:24.552Z,0.00
2018-04-28T00:33:32.508Z,0.00
2018-04-28T00:34:33.562Z,0.00
2018-04-28T00:35:38.478Z,0.00
2018-04-28T00:36:39.478Z,0.00
2018-04-28T00:37:32.046Z,0.00
2018-04-28T00:38:11.044Z,0.00
2018-04-28T00:39:11.123Z,0.00
2018-04-28T00:40:11.545Z,0.00
2018-04-28T00:41:34.001Z,0.00
2018-04-28T00:45:14.322Z,0.00
2018-04-28T00:46:14.332Z,0.00
2018-04-28T00:47:15.386Z,0.00
2018-04-28T00:51:17.242Z,0.00
2018-04-28T00:52:17.920Z,0.00
2018-04-28T00:53:17.929Z,0.00
2018-04-28T00:54:38.493Z,0.00
2018-04-28T00:55:39.418Z,0.00
2018-04-28T00:56:18.419Z,0.00
2018-04-28T00:57:18.419Z,0.00
2018-04-28T00:58:18.419Z,0.00
2018-04-28T00:59:18.928Z,0.00
2018-04-28T01:01:50.299Z,0.00
2018-04-28T01:02:53.804Z,0.00
2018-04-28T01:03:50.306Z,0.00
2018-04-28T01:04:50.815Z,0.00
2018-04-28T01:05:50.806Z,0.00
2018-04-28T01:07:11.805Z,0.00
2018-04-28T01:07:50.806Z,0.00
2018-04-28T01:08:51.306Z,0.00
2018-04-28T01:10:11.504Z,0.00
2018-04-28T01:11:12.304Z,0.00
2018-04-28T01:13:22.818Z,0.00
2018-04-28T01:14:22.814Z,0.00
2018-04-28T01:15:22.814Z,0.00
2018-04-28T01:16:23.313Z,0.00
2018-04-28T01:17:44.314Z,0.00
2018-04-28T01:18:23.313Z,0.00
2018-04-28T01:19:23.310Z,0.00
2018-04-28T01:20:23.813Z,0.00
2018-04-28T01:21:23.813Z,0.00
2018-04-28T01:22:29.813Z,0.00
2018-04-28T01:23:23.817Z,0.00
2018-04-28T01:24:47.313Z,0.00
2018-04-28T01:25:45.313Z,0.00
2018-04-28T01:26:23.670Z,0.00
2018-04-28T01:27:24.313Z,0.00
2018-04-28T01:28:44.886Z,0.00
2018-04-28T01:29:26.813Z,0.00
2018-04-28T01:30:45.881Z,0.00
2018-04-28T01:31:45.825Z,0.00
2018-04-28T01:32:24.286Z,0.00
2018-04-28T01:33:46.313Z,0.00
2018-04-28T01:35:56.680Z,0.00
2018-04-28T01:36:56.691Z,0.00
2018-04-28T01:37:56.686Z,0.00
2018-04-28T01:38:57.186Z,0.00
2018-04-28T01:39:57.185Z,0.00
2018-04-28T01:40:57.187Z,0.00
2018-04-28T01:41:57.185Z,0.00
2018-04-28T01:43:18.685Z,0.00
2018-04-28T01:44:18.687Z,0.00
2018-04-28T01:44:57.689Z,0.00
2018-04-28T01:45:57.685Z,0.00
2018-04-28T01:46:59.163Z,0.00
2018-04-28T01:48:19.185Z,0.00
2018-04-28T01:48:57.534Z,0.00
2018-04-28T01:49:58.184Z,0.00
2018-04-28T01:51:19.684Z,0.00
2018-04-28T01:52:21.149Z,0.00
2018-04-28T01:53:04.687Z,0.00
2018-04-28T01:54:19.680Z,0.00
2018-04-28T01:55:20.188Z,0.00
2018-04-28T01:56:00.655Z,0.00
2018-04-28T01:57:20.184Z,0.00
2018-04-28T01:57:59.184Z,0.00
2018-04-28T01:58:59.683Z,0.00
2018-04-28T01:59:58.911Z,0.00
2018-04-28T02:00:59.687Z,0.00
2018-04-28T02:01:59.683Z,0.00
2018-04-28T02:03:00.184Z,0.00
2018-04-28T02:05:33.550Z,0.00
2018-04-28T02:06:31.569Z,0.00
2018-04-28T02:07:52.557Z,0.00
2018-04-28T02:10:03.321Z,0.00
2018-04-28T02:11:24.330Z,0.00
2018-04-28T02:12:03.329Z,0.00
2018-04-28T02:13:11.284Z,0.00
2018-04-28T02:14:03.836Z,0.00
2018-04-28T02:15:03.828Z,0.00
2018-04-28T02:16:03.214Z,0.00
2018-04-28T02:17:03.828Z,0.00
2018-04-28T02:19:56.563Z,0.00
2018-04-28T02:20:36.534Z,0.00
2018-04-28T02:21:35.594Z,0.00
2018-04-28T02:22:35.063Z,0.00
2018-04-28T02:23:36.070Z,0.00
2018-04-28T02:24:57.070Z,0.00
2018-04-28T02:25:36.071Z,0.00
2018-04-28T02:26:36.072Z,0.00
2018-04-28T02:27:36.568Z,0.00
2018-04-28T02:28:36.569Z,0.00
2018-04-28T02:29:36.571Z,0.00
2018-04-28T02:30:36.577Z,0.00
2018-04-28T02:31:37.075Z,0.00
2018-04-28T02:32:37.070Z,0.00
2018-04-28T02:33:37.074Z,0.00
2018-04-28T02:34:51.069Z,0.00
2018-04-28T02:37:08.842Z,0.00
2018-04-28T02:38:08.849Z,0.00
2018-04-28T02:39:08.850Z,0.00
2018-04-28T02:40:09.348Z,0.00
2018-04-28T02:42:40.736Z,0.00
2018-04-28T02:43:40.744Z,0.00
2018-04-28T02:44:40.744Z,0.00
2018-04-28T02:45:47.244Z,0.00
2018-04-28T02:48:13.148Z,0.00
2018-04-28T02:49:34.148Z,0.00
2018-04-28T02:50:13.232Z,0.00
2018-04-28T02:51:13.143Z,0.00
2018-04-28T02:52:13.642Z,0.00
2018-04-28T02:53:13.639Z,0.00
2018-04-28T02:54:13.649Z,0.00
2018-04-28T02:55:13.639Z,0.00
2018-04-28T02:56:13.233Z,0.00
2018-04-28T02:58:45.517Z,0.00
2018-04-28T02:59:45.527Z,0.00
2018-04-28T03:00:47.528Z,0.00
2018-04-28T03:02:00.028Z,0.00
2018-04-28T03:02:46.032Z,0.00
2018-04-28T03:03:46.035Z,0.00
2018-04-28T03:04:46.036Z,0.00
2018-04-28T03:07:17.788Z,0.00
2018-04-28T03:08:17.786Z,0.00
2018-04-28T03:09:17.788Z,0.00
2018-04-28T03:10:18.285Z,0.00
2018-04-28T03:11:18.285Z,0.00
2018-04-28T03:12:18.286Z,0.00
2018-04-28T03:13:18.283Z,0.00
2018-04-28T03:14:17.885Z,0.00
2018-04-28T03:15:41.785Z,0.00
2018-04-28T03:16:18.786Z,0.00
2018-04-28T03:17:18.789Z,0.00
2018-04-28T03:18:19.284Z,0.00
2018-04-28T03:19:33.280Z,0.00
2018-04-28T03:20:19.285Z,0.00
2018-04-28T03:21:19.288Z,0.00
2018-04-28T03:22:19.783Z,0.00
2018-04-28T03:23:19.788Z,0.00
2018-04-28T03:24:19.812Z,0.00
2018-04-28T03:25:19.784Z,0.00
2018-04-28T03:26:20.287Z,0.00
2018-04-28T03:27:20.293Z,0.00
2018-04-28T03:28:21.282Z,0.00
2018-04-28T03:29:20.284Z,0.00
2018-04-28T03:31:52.561Z,0.00
2018-04-28T03:33:13.567Z,4.00
2018-04-28T03:33:52.566Z,4.00
2018-04-28T03:34:52.578Z,0.00
2018-04-28T03:35:53.069Z,0.00
2018-04-28T03:36:53.063Z,4.00
2018-04-28T03:39:24.551Z,4.00
2018-04-28T03:40:24.558Z,4.00
2018-04-28T03:41:24.558Z,8.00
2018-04-28T03:42:46.058Z,8.00
2018-04-28T03:43:25.054Z,8.00
2018-04-28T03:44:25.058Z,8.00
2018-04-28T03:45:46.060Z,12.00
2018-04-28T03:46:46.557Z,16.00
2018-04-28T03:47:26.020Z,16.00
2018-04-28T03:48:46.557Z,16.00
2018-04-28T03:49:25.558Z,20.00
2018-04-28T03:50:25.557Z,24.00
2018-04-28T03:51:26.057Z,28.00
2018-04-28T03:52:27.525Z,28.00
2018-04-28T03:53:26.151Z,36.00
2018-04-28T03:54:27.012Z,40.00
2018-04-28T03:55:26.058Z,44.00
2018-04-28T03:56:26.997Z,48.00
2018-04-28T03:57:27.554Z,56.00
2018-04-28T03:58:27.488Z,64.00
2018-04-28T03:59:26.565Z,68.00
2018-04-28T04:00:26.555Z,72.00
2018-04-28T04:01:26.559Z,80.00
2018-04-28T04:02:48.054Z,88.00
2018-04-28T04:03:48.057Z,96.00
2018-04-28T04:04:27.055Z,100.00
2018-04-28T04:05:27.052Z,108.00
2018-04-28T04:06:29.007Z,120.00
2018-04-28T04:07:27.555Z,128.00
2018-04-28T04:08:26.774Z,136.00
2018-04-28T04:09:27.556Z,144.00
2018-04-28T04:10:27.561Z,152.00
2018-04-28T04:11:28.054Z,160.00
2018-04-28T04:12:28.055Z,172.00
2018-04-28T04:13:28.055Z,184.00
2018-04-28T04:14:28.054Z,196.00
2018-04-28T04:15:34.560Z,204.00
2018-04-28T04:16:28.552Z,216.00
2018-04-28T04:17:28.553Z,228.00
2018-04-28T04:18:28.553Z,240.00
2018-04-28T04:19:29.064Z,248.00
2018-04-28T04:20:29.057Z,260.00
2018-04-28T04:21:29.054Z,272.00
2018-04-28T04:22:29.057Z,284.00
2018-04-28T04:23:29.553Z,292.00
2018-04-28T04:26:03.852Z,320.00
2018-04-28T04:27:00.922Z,332.00
2018-04-28T04:28:00.921Z,340.00
2018-04-28T04:29:01.416Z,348.00
2018-04-28T04:30:22.423Z,360.00
2018-04-28T04:31:22.437Z,368.00
2018-04-28T04:32:01.473Z,380.00
2018-04-28T04:33:21.996Z,396.00
2018-04-28T04:35:56.190Z,436.00
2018-04-28T04:36:33.755Z,448.00
2018-04-28T04:37:32.977Z,472.00
2018-04-28T04:38:55.763Z,484.00
2018-04-28T04:39:33.217Z,500.00
2018-04-28T04:40:55.258Z,512.00
2018-04-28T04:41:33.474Z,528.00
2018-04-28T04:42:34.252Z,548.00
2018-04-28T04:43:34.258Z,556.00
2018-04-28T04:44:34.752Z,568.00
2018-04-28T04:45:33.975Z,588.00
2018-04-28T04:48:27.215Z,632.00
2018-04-28T04:49:06.224Z,648.00
2018-04-28T04:50:06.222Z,660.00
2018-04-28T04:51:27.722Z,668.00
2018-04-28T04:52:27.722Z,660.00
2018-04-28T04:53:27.722Z,684.00
2018-04-28T04:54:29.187Z,720.00
2018-04-28T04:55:30.221Z,744.00
2018-04-28T04:56:28.221Z,768.00
2018-04-28T04:57:28.222Z,768.00
2018-04-28T04:58:07.220Z,772.00
2018-04-28T04:59:28.755Z,804.00
2018-04-28T05:01:41.969Z,848.00
2018-04-28T05:02:41.487Z,864.00
2018-04-28T05:03:38.447Z,900.00
2018-04-28T05:04:39.517Z,924.00
2018-04-28T05:07:24.752Z,944.00
2018-04-28T05:08:10.759Z,988.00
2018-04-28T05:09:31.759Z,1020.00
2018-04-28T05:10:11.259Z,992.00
2018-04-28T05:11:11.262Z,1056.00
2018-04-28T05:12:11.259Z,1068.00
2018-04-28T05:13:11.262Z,1080.00
2018-04-28T05:14:13.219Z,1084.00
2018-04-28T05:15:32.758Z,1096.00
2018-04-28T05:16:14.691Z,1116.00
2018-04-28T05:17:33.725Z,1144.00
2018-04-28T05:18:14.195Z,1164.00
2018-04-28T05:19:33.258Z,1180.00
2018-04-28T05:20:12.257Z,1192.00
2018-04-28T05:21:13.698Z,1212.00
2018-04-28T05:22:13.190Z,1232.00
2018-04-28T05:23:12.257Z,1244.00
2018-04-28T05:24:32.839Z,1264.00
2018-04-28T05:25:12.757Z,1284.00
2018-04-28T05:26:33.762Z,1256.00
2018-04-28T05:27:33.086Z,1268.00
2018-04-28T05:28:12.758Z,1296.00
2018-04-28T05:29:12.763Z,1316.00
2018-04-28T05:30:14.724Z,1320.00
2018-04-28T05:31:13.259Z,1324.00
2018-04-28T05:32:34.256Z,1324.00
2018-04-28T05:33:34.254Z,1340.00
2018-04-28T05:35:45.003Z,1364.00
2018-04-28T05:36:45.012Z,1308.00
2018-04-28T05:37:45.016Z,1304.00
2018-04-28T05:39:07.510Z,1412.00
2018-04-28T05:40:07.952Z,1376.00
2018-04-28T05:40:47.511Z,1392.00
2018-04-28T05:41:46.450Z,1404.00
2018-04-28T05:43:06.518Z,1424.00
2018-04-28T05:43:45.511Z,1416.00
2018-04-28T05:44:46.013Z,1436.00
2018-04-28T05:45:48.447Z,1440.00
2018-04-28T05:46:46.011Z,1436.00
2018-04-28T05:47:46.010Z,1420.00
2018-04-28T05:50:18.278Z,1428.00
2018-04-28T05:51:20.282Z,1452.00
2018-04-28T05:52:18.292Z,1460.00
2018-04-28T05:53:18.282Z,1464.00
2018-04-28T05:54:21.214Z,1444.00
2018-04-28T05:55:18.789Z,1500.00
2018-04-28T05:56:18.782Z,1500.00
2018-04-28T05:57:20.217Z,1504.00
2018-04-28T05:58:19.282Z,1516.00
2018-04-28T05:59:19.282Z,1520.00
2018-04-28T06:00:40.283Z,1520.00
2018-04-28T06:01:19.282Z,1524.00
2018-04-28T06:04:11.282Z,1532.00
2018-04-28T06:04:51.046Z,1508.00
2018-04-28T06:05:51.038Z,1472.00
2018-04-28T06:06:51.539Z,1484.00
2018-04-28T06:08:12.541Z,1480.00
2018-04-28T06:08:51.545Z,1492.00
2018-04-28T06:09:51.537Z,1476.00
2018-04-28T06:10:52.038Z,1456.00
2018-04-28T06:11:53.469Z,1496.00
2018-04-28T06:12:52.037Z,1492.00
2018-04-28T06:13:52.039Z,1520.00
2018-04-28T06:14:52.538Z,1580.00
2018-04-28T06:15:52.553Z,1592.00
2018-04-28T06:16:52.541Z,1604.00
2018-04-28T06:17:52.537Z,1592.00
2018-04-28T06:18:53.037Z,1592.00
2018-04-28T06:20:14.105Z,1588.00
2018-04-28T06:20:53.037Z,1608.00
2018-04-28T06:21:53.123Z,1612.00
2018-04-28T06:22:53.537Z,1572.00
2018-04-28T06:23:53.543Z,1544.00
2018-04-28T06:24:52.880Z,1516.00
2018-04-28T06:25:53.571Z,1544.00
2018-04-28T06:26:53.144Z,1640.00
2018-04-28T06:28:14.245Z,1644.00
2018-04-28T06:28:54.045Z,1664.00
2018-04-28T06:29:54.036Z,1636.00
2018-04-28T06:30:54.468Z,1648.00
2018-04-28T06:31:55.540Z,1632.00
2018-04-28T06:32:54.536Z,1640.00
2018-04-28T06:33:54.536Z,1576.00
2018-04-28T06:34:54.541Z,1676.00
2018-04-28T06:35:55.037Z,1676.00
2018-04-28T06:38:26.402Z,1696.00
2018-04-28T06:39:26.408Z,1728.00
2018-04-28T06:40:26.511Z,1728.00
2018-04-28T06:41:28.339Z,1732.00
2018-04-28T06:42:26.909Z,1716.00
2018-04-28T06:43:26.915Z,1740.00
2018-04-28T06:44:26.908Z,1760.00
2018-04-28T06:45:27.407Z,1796.00
2018-04-28T06:46:28.370Z,1816.00
2018-04-28T06:47:27.408Z,1828.00
2018-04-28T06:48:27.411Z,1840.00
2018-04-28T06:49:50.917Z,1876.00
2018-04-28T06:50:27.944Z,1884.00
2018-04-28T06:51:48.904Z,1904.00
2018-04-28T06:52:27.909Z,1920.00
2018-04-28T06:54:59.662Z,1920.00
2018-04-28T06:55:59.669Z,1976.00
2018-04-28T06:56:59.671Z,2004.00
2018-04-28T06:58:21.174Z,2024.00
2018-04-28T06:59:00.169Z,2048.00
2018-04-28T07:00:05.154Z,2068.00
2018-04-28T07:00:59.624Z,2092.00
2018-04-28T07:02:00.670Z,2108.00
2018-04-28T07:04:32.043Z,1844.00
2018-04-28T07:05:33.918Z,2232.00
2018-04-28T07:06:52.918Z,2264.00
2018-04-28T07:07:32.418Z,2284.00
2018-04-28T07:08:54.416Z,2308.00
2018-04-28T07:09:32.423Z,2324.00
2018-04-28T07:10:32.417Z,2344.00
2018-04-28T07:11:34.941Z,2364.00
2018-04-28T07:12:56.350Z,2384.00
2018-04-28T07:13:32.916Z,2408.00
2018-04-28T07:14:32.924Z,2432.00
2018-04-28T07:15:47.424Z,2472.00
2018-04-28T07:16:54.429Z,2580.00
2018-04-28T07:17:32.765Z,2564.00
2018-04-28T07:18:54.920Z,2612.00
2018-04-28T07:19:33.019Z,2736.00
2018-04-28T07:20:33.915Z,2592.00
2018-04-28T07:21:33.263Z,2548.00
2018-04-28T07:22:33.916Z,2560.00
2018-04-28T07:23:34.419Z,2604.00
2018-04-28T07:24:34.418Z,2712.00
2018-04-28T07:25:33.766Z,2728.00
2018-04-28T07:26:34.422Z,2752.00
2018-04-28T07:27:36.922Z,2768.00
2018-04-28T07:28:57.917Z,2768.00
2018-04-28T07:29:34.920Z,2424.00
2018-04-28T07:30:49.416Z,2868.00
2018-04-28T07:33:27.671Z,2908.00
2018-04-28T07:34:06.672Z,2612.00
2018-04-28T07:35:06.681Z,2968.00
2018-04-28T07:36:21.171Z,2928.00
2018-04-28T07:37:07.171Z,2936.00
2018-04-28T07:38:07.170Z,2936.00
2018-04-28T07:39:07.179Z,2940.00
2018-04-28T07:41:38.923Z,2972.00
2018-04-28T07:42:38.930Z,3048.00
2018-04-28T07:43:38.930Z,3088.00
2018-04-28T07:45:00.431Z,3008.00
2018-04-28T07:45:39.437Z,3000.00
2018-04-28T07:46:40.890Z,2984.00
2018-04-28T07:47:39.504Z,2976.00
2018-04-28T07:49:00.936Z,2972.00
2018-04-28T07:49:39.929Z,2960.00
2018-04-28T07:50:39.930Z,2940.00
2018-04-28T07:51:39.933Z,2952.00
2018-04-28T07:53:01.473Z,2944.00
2018-04-28T07:53:40.431Z,2972.00
2018-04-28T07:54:49.862Z,2992.00
2018-04-28T07:55:40.433Z,2988.00
2018-04-28T08:01:17.866Z,3024.00
2018-04-28T08:02:15.869Z,3032.00
2018-04-28T08:03:36.869Z,3032.00
2018-04-28T08:04:16.371Z,3028.00
2018-04-28T08:05:16.373Z,3028.00
2018-04-28T08:06:16.370Z,3016.00
2018-04-28T08:07:37.369Z,3044.00
2018-04-28T08:08:16.873Z,3076.00
2018-04-28T08:10:48.259Z,3064.00
2018-04-28T08:11:47.603Z,3068.00
2018-04-28T08:12:48.269Z,3056.00
2018-04-28T08:13:48.761Z,3060.00
2018-04-28T08:16:20.140Z,3000.00
2018-04-28T08:17:47.074Z,3052.00
2018-04-28T08:19:51.200Z,3080.00
2018-04-28T08:20:51.894Z,3036.00
2018-04-28T08:21:51.894Z,3052.00
2018-04-28T08:22:52.402Z,3052.00
2018-04-28T08:24:13.405Z,3072.00
2018-04-28T08:24:52.393Z,3096.00
2018-04-28T08:25:54.398Z,3108.00
2018-04-28T08:26:52.893Z,3092.00
2018-04-28T08:27:54.346Z,3116.00
2018-04-28T08:28:52.897Z,3132.00
2018-04-28T08:29:52.896Z,3172.00
2018-04-28T08:30:53.393Z,3184.00
2018-04-28T08:34:59.166Z,3148.00
2018-04-28T08:38:29.542Z,3248.00
2018-04-28T08:39:29.588Z,3296.00
2018-04-28T08:40:28.590Z,3308.00
2018-04-28T08:41:28.522Z,3308.00
2018-04-28T08:42:28.592Z,3272.00
2018-04-28T08:43:28.590Z,3312.00
2018-04-28T08:45:59.643Z,3300.00
2018-04-28T08:46:59.774Z,3304.00
2018-04-28T08:49:34.024Z,3312.00
2018-04-28T08:50:32.032Z,3312.00
2018-04-28T08:51:33.031Z,3296.00
2018-04-28T08:52:32.532Z,3300.00
2018-04-28T08:53:32.532Z,3316.00
2018-04-28T08:54:32.531Z,3348.00
2018-04-28T08:55:32.536Z,3324.00
2018-04-28T08:56:33.034Z,3324.00
2018-04-28T08:59:04.446Z,3328.00
2018-04-28T09:01:42.448Z,3336.00
2018-04-28T09:02:36.454Z,3344.00
2018-04-28T09:03:36.481Z,3360.00
2018-04-28T09:05:58.886Z,3412.00
2018-04-28T09:06:36.955Z,3440.00
2018-04-28T09:07:36.952Z,3416.00
2018-04-28T09:08:36.958Z,3436.00
2018-04-28T09:09:37.454Z,3452.00
2018-04-28T09:10:37.455Z,3436.00
2018-04-28T09:11:36.811Z,3452.00
2018-04-28T09:12:37.455Z,3476.00
2018-04-28T09:13:37.954Z,3472.00
2018-04-28T09:14:37.970Z,3472.00
2018-04-28T09:15:37.955Z,3480.00
2018-04-28T09:16:40.387Z,3464.00
2018-04-28T09:17:38.458Z,3464.00
2018-04-28T09:18:52.455Z,3488.00
2018-04-28T09:19:38.525Z,3496.00
2018-04-28T09:20:59.482Z,3512.00
2018-04-28T09:21:38.954Z,3512.00
2018-04-28T09:22:38.959Z,3556.00
2018-04-28T09:23:40.957Z,3584.00
2018-04-28T09:24:40.431Z,3592.00
2018-04-28T09:27:24.708Z,3616.00
2018-04-28T09:28:10.723Z,3612.00
2018-04-28T09:29:31.174Z,3628.00
2018-04-28T09:30:11.216Z,3636.00
2018-04-28T09:31:11.216Z,3652.00
2018-04-28T09:32:11.221Z,3672.00
2018-04-28T09:33:11.216Z,3684.00
2018-04-28T09:34:13.716Z,3716.00
2018-04-28T09:35:33.685Z,3744.00
2018-04-28T09:38:10.222Z,3804.00
2018-04-28T09:38:43.230Z,3792.00
2018-04-28T09:39:43.227Z,3812.00
2018-04-28T09:42:14.993Z,3800.00
2018-04-28T09:43:14.999Z,3836.00
2018-04-28T09:44:14.998Z,3844.00
2018-04-28T09:45:36.505Z,3876.00
2018-04-28T09:46:15.498Z,3884.00
2018-04-28T09:47:15.499Z,3880.00
2018-04-28T09:48:15.499Z,3884.00
2018-04-28T09:49:36.998Z,3900.00
2018-04-28T09:50:36.999Z,3936.00
2018-04-28T09:51:36.346Z,3968.00
2018-04-28T09:52:15.999Z,3976.00
2018-04-28T09:53:37.499Z,3992.00
2018-04-28T09:54:16.500Z,4004.00
2018-04-28T09:55:17.432Z,4052.00
2018-04-28T09:56:16.500Z,4064.00
2018-04-28T09:57:16.501Z,4104.00
2018-04-28T09:58:16.999Z,4196.00
2018-04-28T09:59:25.431Z,4276.00
2018-04-28T10:00:17.001Z,4384.00
2018-04-28T10:01:16.999Z,4528.00
2018-04-28T10:02:38.509Z,4700.00
2018-04-28T10:03:17.503Z,4888.00
2018-04-28T10:04:17.499Z,5028.00
2018-04-28T10:05:38.534Z,5116.00
2018-04-28T10:06:18.003Z,5092.00
2018-04-28T10:07:44.995Z,5008.00
2018-04-28T10:08:18.002Z,4312.00
2018-04-28T10:09:17.999Z,3768.00
2018-04-28T10:10:18.526Z,3940.00
2018-04-28T10:11:18.501Z,4600.00
2018-04-28T10:12:18.505Z,4600.00
2018-04-28T10:13:18.499Z,4604.00
2018-04-28T10:14:32.999Z,4592.00
2018-04-28T10:15:19.960Z,4588.00
2018-04-28T10:16:18.999Z,4660.00
2018-04-28T10:17:19.000Z,4696.00
2018-04-28T10:18:19.499Z,4856.00
2018-04-28T10:19:42.931Z,4712.00
2018-04-28T10:20:19.606Z,4736.00
2018-04-28T10:21:19.496Z,4688.00
2018-04-28T10:22:19.999Z,4728.00
2018-04-28T10:23:20.005Z,4708.00
2018-04-28T10:24:19.997Z,4788.00
2018-04-28T10:25:19.999Z,4864.00
2018-04-28T10:27:54.766Z,4980.00
2018-04-28T10:28:51.800Z,5028.00
2018-04-28T10:31:23.558Z,5116.00
2018-04-28T10:32:23.563Z,5192.00
2018-04-28T10:33:23.570Z,5288.00
2018-04-28T10:34:24.067Z,5388.00
2018-04-28T10:36:56.419Z,5956.00
2018-04-28T10:37:55.452Z,6340.00
2018-04-28T10:38:55.952Z,6704.00
2018-04-28T10:40:09.952Z,7052.00
2018-04-28T10:40:55.909Z,7372.00
2018-04-28T10:42:16.401Z,7380.00
2018-04-28T10:42:56.454Z,6612.00
2018-04-28T10:43:56.452Z,6528.00
2018-04-28T10:44:57.451Z,6592.00
2018-04-28T10:45:55.809Z,6852.00
2018-04-28T10:46:56.454Z,6656.00
2018-04-28T10:47:56.952Z,6568.00
2018-04-28T10:48:56.959Z,6312.00
2018-04-28T10:49:56.303Z,6024.00
2018-04-28T10:50:56.952Z,5816.00
2018-04-28T10:51:57.458Z,5704.00
2018-04-28T10:52:56.713Z,5844.00
2018-04-28T10:53:57.474Z,5964.00
2018-04-28T10:54:57.452Z,6172.00
2018-04-28T10:56:18.953Z,6304.00
2018-04-28T10:56:57.952Z,6440.00
2018-04-28T10:57:57.952Z,6152.00
2018-04-28T10:58:58.453Z,6208.00
2018-04-28T10:59:58.452Z,6348.00
2018-04-28T11:00:58.453Z,5788.00
2018-04-28T11:01:58.454Z,6352.00
2018-04-28T11:02:58.459Z,6200.00
2018-04-28T11:03:58.994Z,6148.00
2018-04-28T11:04:58.953Z,6440.00
2018-04-28T11:05:58.953Z,6736.00
2018-04-28T11:06:58.952Z,6908.00
2018-04-28T11:09:32.646Z,6632.00
2018-04-28T11:10:52.215Z,7444.00
2018-04-28T11:11:33.722Z,8300.00
2018-04-28T11:12:31.715Z,9360.00
2018-04-28T11:13:52.720Z,10840.00
2018-04-28T11:14:31.712Z,10568.00
2018-04-28T11:15:53.221Z,11024.00
2018-04-28T11:16:33.147Z,11628.00
2018-04-28T11:17:33.182Z,11944.00
2018-04-28T11:18:32.215Z,12096.00
2018-04-28T11:19:53.752Z,13096.00
2018-04-28T11:20:53.715Z,18336.00
2018-04-28T11:21:53.716Z,59264.00
2018-04-28T11:22:32.715Z,73312.00
2018-04-28T11:23:54.216Z,78752.00
2018-04-28T11:24:33.220Z,66784.00
2018-04-28T11:25:47.232Z,65792.00
2018-04-28T11:26:53.720Z,58080.00
2018-04-28T11:27:32.830Z,76352.00
2018-04-28T11:28:54.714Z,78432.00
2018-04-28T11:29:33.075Z,76192.00
2018-04-28T11:30:33.716Z,63520.00
2018-04-28T11:33:06.946Z,19584.00
2018-04-28T11:34:06.981Z,20832.00
2018-04-28T11:35:08.450Z,55744.00
2018-04-28T11:36:05.246Z,52352.00
2018-04-28T11:37:06.967Z,56640.00
2018-04-28T11:38:07.549Z,67648.00
2018-04-28T11:39:34.511Z,72192.00
2018-04-28T11:40:27.511Z,70848.00
2018-04-28T11:41:28.511Z,73152.00
2018-04-28T11:42:27.513Z,71168.00
2018-04-28T11:43:21.013Z,65920.00
2018-04-28T11:44:27.230Z,48928.00
2018-04-28T11:45:08.480Z,60096.00
2018-04-28T11:46:28.014Z,68640.00
2018-04-28T11:47:28.513Z,68224.00
2018-04-28T11:48:07.517Z,66624.00
2018-04-28T11:49:28.525Z,66240.00
2018-04-28T11:50:07.513Z,73696.00
2018-04-28T11:51:09.454Z,56672.00
2018-04-28T11:52:08.021Z,54432.00
2018-04-28T11:53:09.012Z,36544.00
2018-04-28T11:54:08.015Z,24512.00
2018-04-28T11:55:08.014Z,28800.00
2018-04-28T11:56:35.511Z,51776.00
2018-04-28T11:57:08.514Z,33568.00
2018-04-28T11:58:08.515Z,22880.00
2018-04-28T11:59:08.604Z,40224.00
2018-04-28T12:01:40.789Z,46592.00
2018-04-28T12:02:41.833Z,48736.00
2018-04-28T12:03:40.806Z,50592.00
2018-04-28T12:04:42.249Z,69952.00
2018-04-28T12:05:47.368Z,57312.00
2018-04-28T12:07:02.301Z,35168.00
2018-04-28T12:09:12.813Z,51616.00
2018-04-28T12:10:14.254Z,34880.00
2018-04-28T12:11:35.256Z,21440.00
2018-04-28T12:12:13.321Z,48064.00
2018-04-28T12:13:16.253Z,68448.00
2018-04-28T12:14:13.323Z,64000.00
2018-04-28T12:15:33.944Z,11412.00
2018-04-28T12:16:13.887Z,58496.00
2018-04-28T12:17:34.825Z,64224.00
2018-04-28T12:18:13.822Z,81408.00
2018-04-28T12:19:16.325Z,79040.00
2018-04-28T12:20:14.321Z,51616.00
2018-04-28T12:21:14.322Z,19104.00
2018-04-28T12:22:14.321Z,9700.00
2018-04-28T12:23:14.822Z,8172.00
2018-04-28T12:24:17.308Z,7952.00
2018-04-28T12:25:14.822Z,8772.00
2018-04-28T12:26:15.329Z,10420.00
2018-04-28T12:27:36.329Z,12748.00
2018-04-28T12:28:15.322Z,55328.00
2018-04-28T12:29:15.321Z,36448.00
2018-04-28T12:30:15.322Z,56160.00
2018-04-28T12:31:35.918Z,79040.00
2018-04-28T12:34:09.690Z,92576.00
2018-04-28T12:34:47.307Z,82752.00
2018-04-28T12:35:47.733Z,50208.00
2018-04-28T12:40:11.581Z,94560.00
2018-04-28T12:41:11.583Z,99616.00
2018-04-28T12:41:50.586Z,97088.00
2018-04-28T12:42:53.086Z,96480.00
2018-04-28T12:43:51.087Z,93760.00
2018-04-28T12:45:12.090Z,95552.00
2018-04-28T12:45:51.086Z,94688.00
2018-04-28T12:46:52.521Z,96128.00
2018-04-28T12:48:05.589Z,93984.00
2018-04-28T12:48:53.050Z,97472.00
2018-04-28T12:49:51.584Z,101408.00
2018-04-28T12:50:52.183Z,91584.00
2018-04-28T12:51:52.086Z,76768.00
2018-04-28T12:53:14.534Z,95456.00
2018-04-28T12:53:52.087Z,91488.00
2018-04-28T12:54:52.587Z,92608.00
2018-04-28T12:55:52.586Z,99584.00
2018-04-28T12:56:52.586Z,92512.00
2018-04-28T12:57:52.589Z,74432.00
2018-04-28T12:58:53.087Z,57344.00
2018-04-28T12:59:55.100Z,69920.00
2018-04-28T13:00:53.090Z,60352.00
2018-04-28T13:01:52.595Z,77600.00
2018-04-28T13:02:53.597Z,58144.00
2018-04-28T13:03:53.587Z,59296.00
2018-04-28T13:05:14.589Z,45984.00
2018-04-28T13:05:53.587Z,65120.00
2018-04-28T13:06:54.087Z,59328.00
2018-04-28T13:07:54.089Z,68000.00
2018-04-28T13:08:54.087Z,65856.00
2018-04-28T13:09:54.087Z,54976.00
2018-04-28T13:10:54.591Z,47744.00
2018-04-28T13:11:56.036Z,37280.00
2018-04-28T13:12:54.588Z,12308.00
2018-04-28T13:14:15.587Z,15220.00
2018-04-28T13:15:09.086Z,12716.00
2018-04-28T13:15:55.087Z,11240.00
2018-04-28T13:16:55.089Z,8700.00
2018-04-28T13:17:55.087Z,8060.00
2018-04-28T13:18:55.587Z,8564.00
2018-04-28T13:19:55.588Z,10108.00
2018-04-28T13:20:55.585Z,10544.00
2018-04-28T13:21:55.591Z,12676.00
2018-04-28T13:24:27.367Z,16736.00
2018-04-28T13:25:28.846Z,18816.00
2018-04-28T13:26:27.374Z,18752.00
2018-04-28T13:27:26.985Z,19744.00
2018-04-28T13:28:27.097Z,18336.00
2018-04-28T13:29:33.874Z,19488.00
2018-04-28T13:30:55.375Z,15612.00
2018-04-28T13:31:28.377Z,12516.00
2018-04-28T13:32:28.375Z,12536.00
2018-04-28T13:33:49.375Z,10824.00
2018-04-28T13:34:28.399Z,11140.00
2018-04-28T13:35:34.875Z,10944.00
2018-04-28T13:38:00.276Z,10496.00
2018-04-28T13:40:54.792Z,17728.00
2018-04-28T13:41:31.149Z,21280.00
2018-04-28T13:42:31.799Z,24800.00
2018-04-28T13:46:56.066Z,11920.00
2018-04-28T13:47:35.073Z,8592.00
2018-04-28T13:48:36.009Z,6836.00
2018-04-28T13:49:37.006Z,6380.00
2018-04-28T13:50:35.572Z,5692.00
2018-04-28T13:51:36.574Z,5176.00
2018-04-28T13:52:40.507Z,4604.00
2018-04-28T13:53:36.069Z,4204.00
2018-04-28T13:54:36.077Z,3904.00
2018-04-28T13:55:36.106Z,3552.00
2018-04-28T13:56:36.082Z,3380.00
2018-04-28T13:57:57.574Z,3308.00
2018-04-28T13:58:39.007Z,3292.00
2018-04-28T13:59:36.577Z,3264.00
2018-04-28T14:00:50.577Z,3204.00
2018-04-28T14:01:37.075Z,3168.00